createdAt,value
2018-07-16T00:00:31.878Z,6.93
2018-07-16T00:02:59.145Z,7.10
2018-07-16T00:05:26.305Z,6.80
2018-07-16T00:07:53.831Z,6.47
2018-07-16T00:10:20.998Z,7.10
2018-07-16T00:12:48.155Z,7.30
2018-07-16T00:15:15.351Z,7.27
2018-07-16T00:17:42.473Z,7.90
2018-07-16T00:20:09.581Z,8.03
2018-07-16T00:22:36.707Z,8.07
2018-07-16T00:25:03.840Z,7.23
2018-07-16T00:27:35.718Z,7.43
2018-07-16T00:30:04.214Z,9.10
2018-07-16T00:32:31.344Z,7.80
2018-07-16T00:34:58.484Z,9.67
2018-07-16T00:37:25.745Z,8.23
2018-07-16T00:39:52.843Z,9.00
2018-07-16T00:42:19.997Z,8.87
2018-07-16T00:44:47.209Z,9.20
2018-07-16T00:47:14.344Z,10.53
2018-07-16T00:49:41.438Z,8.93
2018-07-16T00:52:08.677Z,9.33
2018-07-16T00:54:35.789Z,8.70
2018-07-16T00:57:02.900Z,9.30
2018-07-16T00:59:30.109Z,8.33
2018-07-16T01:01:57.285Z,9.33
2018-07-16T01:04:24.411Z,9.47
2018-07-16T01:06:51.752Z,8.87
2018-07-16T01:09:18.885Z,9.87
2018-07-16T01:11:45.975Z,9.87
2018-07-16T01:14:13.160Z,8.87
2018-07-16T01:16:41.171Z,8.73
2018-07-16T01:19:09.871Z,8.47
2018-07-16T01:21:37.123Z,9.93
2018-07-16T01:24:04.304Z,9.20
2018-07-16T01:26:31.448Z,9.03
2018-07-16T01:28:59.644Z,8.63
2018-07-16T01:31:26.755Z,8.63
2018-07-16T01:33:54.130Z,8.83
2018-07-16T01:36:21.343Z,9.07
2018-07-16T01:38:48.656Z,8.87
2018-07-16T01:41:15.746Z,10.53
2018-07-16T01:43:42.904Z,9.50
2018-07-16T01:46:09.985Z,9.17
2018-07-16T01:48:37.107Z,9.20
2018-07-16T01:51:04.356Z,10.33
2018-07-16T01:53:31.447Z,9.23
2018-07-16T01:55:58.699Z,10.37
2018-07-16T01:58:25.969Z,8.27
2018-07-16T02:00:56.741Z,9.03
2018-07-16T02:03:28.543Z,9.07
2018-07-16T02:05:55.857Z,9.17
2018-07-16T02:08:23.813Z,8.67
2018-07-16T02:10:51.429Z,9.60
2018-07-16T02:13:18.704Z,9.30
2018-07-16T02:15:45.887Z,11.05
2018-07-16T02:18:13.908Z,9.63
2018-07-16T02:20:41.347Z,8.77
2018-07-16T02:23:08.452Z,9.37
2018-07-16T02:25:35.704Z,8.83
2018-07-16T02:28:02.832Z,10.83
2018-07-16T02:30:29.976Z,9.67
2018-07-16T02:32:57.807Z,10.80
2018-07-16T02:35:24.932Z,10.37
2018-07-16T02:37:53.089Z,12.23
2018-07-16T02:40:20.354Z,10.60
2018-07-16T02:42:48.372Z,11.07
2018-07-16T02:45:15.499Z,11.67
2018-07-16T02:47:42.682Z,10.20
2018-07-16T02:50:09.778Z,9.87
2018-07-16T02:52:36.876Z,10.00
2018-07-16T02:55:04.133Z,9.53
2018-07-16T02:57:31.552Z,9.70
2018-07-16T02:59:58.709Z,11.20
2018-07-16T03:02:25.970Z,12.30
2018-07-16T03:04:53.072Z,10.67
2018-07-16T03:07:20.227Z,9.77
2018-07-16T03:09:47.517Z,11.67
2018-07-16T03:12:14.657Z,11.47
2018-07-16T03:14:41.788Z,18.17
2018-07-16T03:17:09.637Z,10.53
2018-07-16T03:19:36.784Z,10.20
2018-07-16T03:22:03.959Z,11.60
2018-07-16T03:24:31.775Z,12.40
2018-07-16T03:26:59.833Z,10.90
2018-07-16T03:29:27.835Z,11.60
2018-07-16T03:31:55.242Z,12.57
2018-07-16T03:34:22.384Z,11.97
2018-07-16T03:36:49.524Z,14.00
2018-07-16T03:39:16.754Z,12.23
2018-07-16T03:41:43.863Z,12.77
2018-07-16T03:44:10.986Z,10.93
2018-07-16T03:46:38.250Z,12.27
2018-07-16T03:49:05.402Z,13.13
2018-07-16T03:51:32.522Z,11.67
2018-07-16T03:53:59.812Z,12.60
2018-07-16T03:56:26.971Z,12.97
2018-07-16T03:58:54.143Z,13.57
2018-07-16T04:01:21.404Z,15.37
2018-07-16T04:03:48.484Z,13.87
2018-07-16T04:06:15.666Z,12.83
2018-07-16T04:08:42.852Z,12.77
2018-07-16T04:11:10.015Z,12.10
2018-07-16T04:13:37.106Z,11.07
2018-07-16T04:16:04.343Z,12.13
2018-07-16T04:18:31.464Z,16.33
2018-07-16T04:20:58.875Z,15.47
2018-07-16T04:23:26.167Z,15.90
2018-07-16T04:25:53.288Z,12.10
2018-07-16T04:28:20.387Z,13.50
2018-07-16T04:30:47.666Z,14.37
2018-07-16T04:33:14.798Z,13.63
2018-07-16T04:35:41.883Z,13.93
2018-07-16T04:38:09.125Z,13.87
2018-07-16T04:40:36.239Z,13.67
2018-07-16T04:43:04.149Z,13.40
2018-07-16T04:45:31.499Z,13.23
2018-07-16T04:47:59.794Z,13.23
2018-07-16T04:50:27.954Z,13.63
2018-07-16T04:52:55.385Z,13.83
2018-07-16T04:55:22.549Z,13.10
2018-07-16T04:57:50.910Z,13.27
2018-07-16T05:00:19.070Z,13.63
2018-07-16T05:02:46.584Z,14.07
2018-07-16T05:05:18.123Z,13.50
2018-07-16T05:07:47.409Z,15.13
2018-07-16T05:10:15.132Z,15.40
2018-07-16T05:12:42.461Z,16.60
2018-07-16T05:15:11.649Z,16.53
2018-07-16T05:17:41.177Z,18.90
2018-07-16T05:20:08.597Z,19.30
2018-07-16T05:22:36.551Z,19.60
2018-07-16T05:25:05.013Z,15.73
2018-07-16T05:27:33.589Z,14.53
2018-07-16T05:30:02.661Z,14.77
2018-07-16T05:32:32.238Z,14.33
2018-07-16T05:35:01.755Z,11.30
2018-07-16T05:37:31.283Z,12.23
2018-07-16T05:39:59.545Z,13.43
2018-07-16T05:42:29.379Z,15.53
2018-07-16T05:45:00.501Z,14.20
2018-07-16T05:47:32.190Z,15.03
2018-07-16T05:50:01.065Z,13.43
2018-07-16T05:52:30.545Z,13.57
2018-07-16T05:54:59.682Z,12.17
2018-07-16T05:57:29.179Z,9.40
2018-07-16T06:00:00.238Z,11.93
2018-07-16T06:02:29.833Z,9.43
2018-07-16T06:04:59.298Z,8.83
2018-07-16T06:07:27.933Z,7.83
2018-07-16T06:09:59.216Z,7.33
2018-07-16T06:12:30.539Z,8.13
2018-07-16T06:14:59.506Z,8.00
2018-07-16T06:17:27.358Z,8.03
2018-07-16T06:19:54.557Z,7.73
2018-07-16T06:39:37.470Z,8.03
2018-07-16T06:42:05.249Z,11.03
2018-07-16T06:44:34.061Z,7.40
2018-07-16T06:47:01.358Z,7.17
2018-07-16T06:49:28.656Z,6.27
2018-07-16T06:51:55.802Z,7.40
2018-07-16T07:11:37.669Z,9.60
2018-07-16T07:14:05.361Z,9.20
2018-07-16T07:16:32.748Z,8.10
2018-07-16T07:18:59.934Z,8.43
2018-07-16T07:21:27.085Z,6.87
2018-07-16T07:32:32.872Z,8.73
2018-07-16T07:35:00.181Z,9.77
2018-07-16T07:37:27.309Z,6.53
2018-07-16T07:39:54.568Z,7.13
2018-07-16T07:42:21.803Z,8.43
2018-07-16T07:44:49.209Z,7.63
2018-07-16T07:47:16.847Z,7.07
2018-07-16T07:49:44.496Z,6.93
2018-07-16T07:52:13.348Z,10.43
2018-07-16T07:54:41.298Z,6.73
2018-07-16T07:57:08.279Z,7.50
2018-07-16T07:59:35.370Z,6.70
2018-07-16T08:02:02.687Z,7.17
2018-07-16T08:04:29.934Z,7.03
2018-07-16T08:07:02.833Z,7.40
2018-07-16T08:09:30.017Z,7.93
2018-07-16T08:11:57.265Z,7.67
2018-07-16T08:14:24.419Z,8.47
2018-07-16T08:16:51.709Z,8.10
2018-07-16T08:19:19.009Z,8.63
2018-07-16T08:21:46.289Z,9.33
2018-07-16T08:24:13.665Z,9.10
2018-07-16T08:26:40.868Z,8.53
2018-07-16T08:29:08.085Z,8.33
2018-07-16T08:31:35.367Z,8.63
2018-07-16T08:34:02.511Z,8.07
2018-07-16T08:36:29.706Z,8.33
2018-07-16T08:38:57.155Z,8.57
2018-07-16T08:41:24.835Z,8.47
2018-07-16T08:43:52.017Z,7.83
2018-07-16T08:46:19.308Z,8.83
2018-07-16T08:48:46.429Z,8.37
2018-07-16T08:51:13.587Z,8.70
2018-07-16T08:53:40.912Z,8.50
2018-07-16T08:56:08.236Z,8.20
2018-07-16T08:58:35.542Z,9.83
2018-07-16T09:01:02.946Z,7.70
2018-07-16T09:03:30.121Z,6.90
2018-07-16T09:06:04.330Z,8.77
2018-07-16T09:08:33.829Z,5.77
2018-07-16T09:11:01.150Z,6.40
2018-07-16T09:13:28.335Z,6.30
2018-07-16T09:15:55.496Z,5.93
2018-07-16T09:18:22.757Z,8.10
2018-07-16T09:20:49.989Z,7.60
2018-07-16T09:23:17.280Z,5.43
2018-07-16T09:25:49.012Z,5.43
2018-07-16T09:28:16.201Z,6.43
2018-07-16T09:30:43.405Z,7.53
2018-07-16T09:33:10.884Z,8.77
2018-07-16T09:35:38.075Z,7.10
2018-07-16T09:38:05.450Z,4.70
2018-07-16T09:40:32.752Z,5.30
2018-07-16T09:42:59.913Z,4.63
2018-07-16T09:45:27.081Z,6.83
2018-07-16T09:47:54.290Z,5.83
2018-07-16T09:50:21.395Z,7.03
2018-07-16T09:52:48.589Z,4.87
2018-07-16T09:55:15.959Z,6.53
2018-07-16T09:57:43.127Z,5.43
2018-07-16T10:00:10.353Z,6.23
2018-07-16T10:02:37.693Z,4.80
2018-07-16T10:05:05.854Z,4.40
2018-07-16T10:07:33.323Z,4.27
2018-07-16T10:10:00.492Z,4.87
2018-07-16T10:12:27.620Z,4.70
2018-07-16T10:14:54.799Z,4.33
2018-07-16T10:17:21.997Z,4.27
2018-07-16T10:19:49.340Z,5.97
2018-07-16T10:22:16.464Z,4.50
2018-07-16T10:24:43.802Z,4.87
2018-07-16T10:27:11.417Z,4.83
2018-07-16T10:29:38.818Z,4.93
2018-07-16T10:32:06.865Z,4.20
2018-07-16T10:34:34.468Z,4.23
2018-07-16T10:37:01.620Z,4.13
2018-07-16T10:39:28.903Z,4.53
2018-07-16T10:41:56.104Z,5.97
2018-07-16T10:44:23.193Z,4.10
2018-07-16T10:46:50.449Z,9.47
2018-07-16T10:49:17.652Z,17.60
2018-07-16T10:51:45.394Z,3.97
2018-07-16T10:54:12.780Z,4.20
2018-07-16T10:56:40.165Z,4.30
2018-07-16T10:59:07.377Z,4.17
2018-07-16T11:01:35.937Z,4.53
2018-07-16T11:04:03.653Z,4.67
2018-07-16T11:06:30.965Z,4.60
2018-07-16T11:08:58.209Z,4.23
2018-07-16T11:11:25.363Z,5.00
2018-07-16T11:13:52.502Z,5.20
2018-07-16T11:16:19.958Z,4.67
2018-07-16T11:18:47.809Z,5.60
2018-07-16T11:21:15.155Z,3.92
2018-07-16T11:23:42.628Z,4.22
2018-07-16T11:26:09.767Z,8.83
2018-07-16T11:28:36.917Z,4.13
2018-07-16T11:31:04.396Z,4.00
2018-07-16T11:33:31.574Z,4.37
2018-07-16T11:35:58.809Z,4.75
2018-07-16T11:38:27.232Z,4.87
2018-07-16T11:40:54.335Z,4.15
2018-07-16T11:43:21.530Z,4.97
2018-07-16T11:45:48.976Z,4.03
2018-07-16T11:48:16.612Z,4.65
2018-07-16T11:50:44.124Z,4.70
2018-07-16T11:53:11.412Z,4.90
2018-07-16T11:55:38.648Z,4.20
2018-07-16T11:58:05.796Z,4.62
2018-07-16T12:00:33.100Z,4.45
2018-07-16T12:03:00.226Z,6.67
2018-07-16T12:05:27.412Z,4.30
2018-07-16T12:07:55.009Z,4.35
2018-07-16T12:10:22.318Z,3.95
2018-07-16T12:12:49.563Z,4.20
2018-07-16T12:15:16.744Z,4.00
2018-07-16T12:17:44.041Z,4.30
2018-07-16T12:20:11.175Z,5.22
2018-07-16T12:22:38.405Z,4.30
2018-07-16T12:25:05.911Z,5.37
2018-07-16T12:27:33.118Z,4.47
2018-07-16T12:30:00.454Z,4.25
2018-07-16T12:32:30.490Z,5.07
2018-07-16T12:34:57.787Z,9.60
2018-07-16T12:37:25.499Z,3.90
2018-07-16T12:39:52.673Z,3.93
2018-07-16T12:42:20.214Z,3.97
2018-07-16T12:44:47.366Z,4.13
2018-07-16T12:47:14.724Z,4.37
2018-07-16T12:49:42.002Z,4.23
2018-07-16T12:52:09.266Z,4.40
2018-07-16T12:54:36.541Z,4.33
2018-07-16T12:57:03.881Z,4.13
2018-07-16T12:59:31.329Z,4.47
2018-07-16T13:01:59.307Z,4.67
2018-07-16T13:04:26.674Z,3.97
2018-07-16T13:06:54.423Z,4.80
2018-07-16T13:09:21.868Z,5.63
2018-07-16T13:11:49.360Z,5.60
2018-07-16T13:14:17.651Z,4.23
2018-07-16T13:16:44.893Z,4.40
2018-07-16T13:19:12.025Z,5.67
2018-07-16T13:21:39.294Z,4.23
2018-07-16T13:24:06.517Z,10.97
2018-07-16T13:26:33.738Z,4.07
2018-07-16T13:29:00.885Z,4.80
2018-07-16T13:31:28.040Z,5.00
2018-07-16T13:33:55.437Z,5.67
2018-07-16T13:36:22.969Z,4.27
2018-07-16T13:38:50.567Z,4.20
2018-07-16T13:41:18.183Z,6.13
2018-07-16T13:43:45.413Z,5.33
2018-07-16T13:46:12.516Z,4.63
2018-07-16T13:48:39.648Z,4.57
2018-07-16T13:51:07.441Z,4.40
2018-07-16T13:53:34.567Z,6.73
2018-07-16T13:56:01.768Z,4.60
2018-07-16T13:58:28.925Z,6.80
2018-07-16T14:00:56.309Z,4.80
2018-07-16T14:03:23.777Z,4.00
2018-07-16T14:05:52.037Z,4.37
2018-07-16T14:08:19.697Z,4.07
2018-07-16T14:10:46.998Z,4.73
2018-07-16T14:13:14.795Z,3.80
2018-07-16T14:15:41.975Z,4.80
2018-07-16T14:18:09.091Z,3.93
2018-07-16T14:20:36.376Z,4.43
2018-07-16T14:23:04.196Z,4.30
2018-07-16T14:25:31.382Z,5.07
2018-07-16T14:27:58.854Z,4.13
2018-07-16T14:30:26.190Z,3.90
2018-07-16T14:32:53.669Z,4.47
2018-07-16T14:35:21.320Z,3.63
2018-07-16T14:37:48.934Z,3.77
2018-07-16T14:40:16.332Z,3.90
2018-07-16T14:42:43.906Z,4.10
2018-07-16T14:45:11.040Z,4.90
2018-07-16T14:47:38.192Z,6.23
2018-07-16T14:50:05.372Z,3.90
2018-07-16T14:52:32.640Z,4.33
2018-07-16T14:54:59.967Z,3.23
2018-07-16T14:57:27.365Z,3.33
2018-07-16T14:59:54.603Z,4.65
2018-07-16T15:02:22.112Z,3.77
2018-07-16T15:04:49.852Z,4.13
2018-07-16T15:07:17.070Z,4.23
2018-07-16T15:09:44.284Z,4.30
2018-07-16T15:12:12.352Z,3.60
2018-07-16T15:14:41.603Z,3.92
2018-07-16T15:17:08.880Z,3.40
2018-07-16T15:19:36.358Z,3.75
2018-07-16T15:22:03.509Z,7.67
2018-07-16T15:24:30.615Z,3.87
2018-07-16T15:26:58.728Z,3.17
2018-07-16T15:29:26.118Z,4.00
2018-07-16T15:31:53.513Z,3.52
2018-07-16T15:34:21.101Z,3.72
2018-07-16T15:36:48.698Z,2.98
2018-07-16T15:39:15.836Z,3.98
2018-07-16T15:41:43.065Z,3.20
2018-07-16T15:44:10.178Z,3.72
2018-07-16T15:46:37.301Z,3.58
2018-07-16T15:49:04.500Z,3.77
2018-07-16T15:51:31.605Z,4.55
2018-07-16T15:53:59.248Z,3.05
2018-07-16T15:56:26.976Z,3.35
2018-07-16T15:58:54.319Z,3.22
2018-07-16T16:01:21.499Z,2.92
2018-07-16T16:03:48.992Z,4.40
2018-07-16T16:06:16.268Z,4.75
2018-07-16T16:08:43.425Z,3.72
2018-07-16T16:11:10.620Z,3.58
2018-07-16T16:13:37.896Z,3.50
2018-07-16T16:16:05.166Z,3.58
2018-07-16T16:18:32.351Z,4.50
2018-07-16T16:20:59.530Z,5.05
2018-07-16T16:23:26.861Z,3.47
2018-07-16T16:25:54.335Z,4.17
2018-07-16T16:28:21.741Z,4.15
2018-07-16T16:30:49.579Z,3.40
2018-07-16T16:33:16.978Z,4.03
2018-07-16T16:35:44.273Z,3.50
2018-07-16T16:38:11.433Z,3.30
2018-07-16T16:40:38.750Z,3.83
2018-07-16T16:43:06.054Z,3.67
2018-07-16T16:45:33.355Z,3.57
2018-07-16T16:48:00.895Z,3.67
2018-07-16T16:50:28.225Z,4.13
2018-07-16T16:52:55.636Z,5.27
2018-07-16T16:55:23.140Z,4.53
2018-07-16T16:57:50.661Z,3.87
2018-07-16T17:00:18.374Z,4.23
2018-07-16T17:02:45.595Z,3.73
2018-07-16T17:05:12.756Z,4.20
2018-07-16T17:07:40.103Z,4.47
2018-07-16T17:10:07.564Z,3.80
2018-07-16T17:12:34.688Z,3.97
2018-07-16T17:15:01.884Z,3.80
2018-07-16T17:17:29.468Z,3.70
2018-07-16T17:19:57.252Z,4.23
2018-07-16T17:22:24.616Z,3.50
2018-07-16T17:24:52.190Z,4.53
2018-07-16T17:27:19.877Z,4.83
2018-07-16T17:29:47.159Z,4.33
2018-07-16T17:32:14.477Z,3.63
2018-07-16T17:34:41.636Z,4.90
2018-07-16T17:37:10.245Z,3.93
2018-07-16T17:39:37.520Z,3.70
2018-07-16T17:42:04.699Z,4.37
2018-07-16T17:44:31.919Z,4.37
2018-07-16T17:46:59.528Z,3.80
2018-07-16T17:49:26.723Z,3.90
2018-07-16T17:51:54.046Z,6.33
2018-07-16T17:54:21.223Z,4.87
2018-07-16T17:56:48.431Z,4.10
2018-07-16T17:59:15.555Z,4.43
2018-07-16T18:01:44.832Z,4.33
2018-07-16T18:04:12.071Z,6.00
2018-07-16T18:06:39.502Z,3.60
2018-07-16T18:09:08.269Z,3.60
2018-07-16T18:11:36.661Z,3.70
2018-07-16T18:14:04.088Z,3.93
2018-07-16T18:16:31.883Z,4.77
2018-07-16T18:19:00.077Z,4.77
2018-07-16T18:21:27.360Z,4.13
2018-07-16T18:23:54.621Z,4.10
2018-07-16T18:26:21.822Z,4.20
2018-07-16T18:28:49.108Z,4.07
2018-07-16T18:31:17.929Z,7.90
2018-07-16T18:33:45.107Z,4.20
2018-07-16T18:36:12.810Z,5.27
2018-07-16T18:38:40.517Z,5.43
2018-07-16T18:41:08.064Z,4.97
2018-07-16T18:43:35.393Z,5.60
2018-07-16T18:46:02.640Z,4.67
2018-07-16T18:48:29.803Z,5.40
2018-07-16T18:50:56.960Z,4.37
2018-07-16T18:53:24.267Z,5.57
2018-07-16T18:55:51.519Z,4.13
2018-07-16T18:58:19.001Z,6.87
2018-07-16T19:00:46.421Z,5.10
2018-07-16T19:03:13.803Z,6.00
2018-07-16T19:05:41.437Z,7.17
2018-07-16T19:08:09.590Z,6.53
2018-07-16T19:10:36.750Z,5.57
2018-07-16T19:13:03.905Z,5.10
2018-07-16T19:15:31.108Z,5.73
2018-07-16T19:17:58.353Z,4.80
2018-07-16T19:20:26.698Z,4.80
2018-07-16T19:22:53.906Z,5.40
2018-07-16T19:25:21.057Z,6.43
2018-07-16T19:27:48.346Z,6.57
2018-07-16T19:30:16.339Z,4.80
2018-07-16T19:32:44.206Z,13.20
2018-07-16T19:35:11.957Z,10.20
2018-07-16T19:37:40.050Z,10.23
2018-07-16T19:40:08.582Z,9.23
2018-07-16T19:42:35.722Z,6.90
2018-07-16T19:45:06.812Z,6.60
2018-07-16T19:47:34.189Z,6.13
2018-07-16T19:50:01.517Z,5.23
2018-07-16T19:52:28.800Z,6.20
2018-07-16T19:54:56.232Z,4.87
2018-07-16T19:57:23.942Z,5.50
2018-07-16T19:59:52.133Z,5.70
2018-07-16T20:02:19.674Z,6.07
2018-07-16T20:04:47.168Z,5.00
2018-07-16T20:07:14.583Z,6.10
2018-07-16T20:09:41.726Z,5.97
2018-07-16T20:12:13.493Z,5.00
2018-07-16T20:14:40.673Z,5.37
2018-07-16T20:17:07.811Z,4.87
2018-07-16T20:19:34.999Z,5.73
2018-07-16T20:22:02.189Z,5.70
2018-07-16T20:24:29.677Z,7.17
2018-07-16T20:26:57.053Z,5.27
2018-07-16T20:29:24.491Z,6.00
2018-07-16T20:31:52.265Z,6.10
2018-07-16T20:34:19.868Z,4.87
2018-07-16T20:36:47.237Z,7.77
2018-07-16T20:39:14.609Z,5.30
2018-07-16T20:41:48.317Z,5.27
2018-07-16T20:44:15.423Z,5.87
2018-07-16T20:46:42.566Z,5.97
2018-07-16T20:49:09.744Z,5.60
2018-07-16T20:51:37.293Z,5.70
2018-07-16T20:54:04.814Z,5.53
2018-07-16T20:56:32.947Z,5.47
2018-07-16T20:59:01.375Z,7.10
2018-07-16T21:01:28.871Z,6.00
2018-07-16T21:03:56.183Z,5.43
2018-07-16T21:06:23.358Z,6.00
2018-07-16T21:08:50.455Z,5.63
2018-07-16T21:11:17.803Z,6.07
2018-07-16T21:13:44.894Z,6.43
2018-07-16T21:16:12.078Z,5.53
2018-07-16T21:18:39.632Z,6.37
2018-07-16T21:21:06.881Z,8.20
2018-07-16T21:23:35.448Z,6.00
2018-07-16T21:26:02.968Z,6.60
2018-07-16T21:28:30.306Z,6.03
2018-07-16T21:30:57.444Z,6.67
2018-07-16T21:33:24.920Z,6.00
2018-07-16T21:35:52.179Z,11.07
2018-07-16T21:38:19.332Z,6.00
2018-07-16T21:40:46.650Z,6.47
2018-07-16T21:43:13.676Z,6.40
2018-07-16T21:45:40.774Z,8.63
2018-07-16T21:48:08.036Z,8.37
2018-07-16T21:50:36.152Z,6.50
2018-07-16T21:53:03.283Z,7.07
2018-07-16T21:55:30.477Z,7.03
2018-07-16T21:57:57.635Z,6.57
2018-07-16T22:00:27.334Z,6.97
2018-07-16T22:02:54.775Z,7.97
2018-07-16T22:05:22.484Z,6.43
2018-07-16T22:07:49.710Z,6.40
2018-07-16T22:10:16.989Z,6.10
2018-07-16T22:12:44.193Z,6.13
2018-07-16T22:15:15.717Z,6.67
2018-07-16T22:17:42.853Z,6.50
2018-07-16T22:20:09.945Z,6.37
2018-07-16T22:22:37.160Z,8.13
2018-07-16T22:25:04.394Z,6.67
2018-07-16T22:27:31.920Z,6.73
2018-07-16T22:29:59.010Z,7.07
2018-07-16T22:32:27.692Z,6.80
2018-07-16T22:34:54.789Z,6.37
2018-07-16T22:37:23.086Z,6.77
2018-07-16T22:39:50.307Z,7.13
2018-07-16T22:42:18.742Z,8.87
2018-07-16T22:44:45.948Z,7.43
2018-07-16T22:47:13.114Z,6.93
2018-07-16T22:49:40.428Z,6.47
2018-07-16T22:52:07.557Z,7.10
2018-07-16T22:54:34.710Z,6.97
2018-07-16T22:57:01.798Z,7.67
2018-07-16T22:59:28.900Z,7.50
2018-07-16T23:01:56.160Z,10.23
2018-07-16T23:04:23.295Z,7.23
2018-07-16T23:06:50.512Z,7.40
2018-07-16T23:09:18.601Z,7.03
2018-07-16T23:11:45.771Z,7.60
2018-07-16T23:14:12.947Z,7.17
2018-07-16T23:16:40.108Z,7.37
2018-07-16T23:19:07.205Z,6.90
2018-07-16T23:21:34.266Z,7.27
2018-07-16T23:24:01.407Z,7.23
2018-07-16T23:26:28.608Z,7.10
2018-07-16T23:28:55.817Z,7.53
2018-07-16T23:31:23.005Z,7.37
2018-07-16T23:33:50.260Z,7.60
2018-07-16T23:36:17.352Z,7.70
2018-07-16T23:38:44.590Z,7.53
2018-07-16T23:41:11.765Z,7.90
2018-07-16T23:43:38.850Z,7.03
2018-07-16T23:46:06.057Z,7.80
2018-07-16T23:48:33.184Z,7.53
2018-07-16T23:51:00.429Z,7.53
2018-07-16T23:53:27.622Z,7.73
2018-07-16T23:55:54.823Z,7.13
2018-07-16T23:58:22.827Z,7.70
